Hauptseite
METAR-TAF:

METAR-TAF

Flughäfen :

Flughafen Longyearbyen

Longyearbyen, Norwegen

Breite: 78-15N, Länge: 015-28E, Höhe: 2 m

Beobachtung

Neuester Wetterbericht von vor 1 Stunde und 19 Minuten, um 01:50 UTC
Wind 3 kt aus unterschiedlichen Richtungen
Temperatur 3°C
Luftfeuchtigkeit 70%
Luftdruck 1017 hPa
Sichtweite 10 km oder mehr
Durchbrochene Bewölkung in der Höhe von 3900 ft

METAR: ENSB 250150Z VRB03KT 9999 BKN039 03/M02 Q1017 RMK WIND 1400FT 31005KT

Zeit: 05:09 (03:09 UTC)

Prognose

Gültige Prognose vom 25 um 00 UTC bis 25 um 24 UTC
Wind 5 kt aus unterschiedlichen Richtungen
Sichtweite 10 km oder mehr
Leicht bewölkt in der Höhe von 2500 ft
Aufgelockert bewölkt in der Höhe von 6000 ft
Zeitweise
vom 25 um 15 UTC bis 25 um 24 UTC
Wind 10 kt aus Südost

TAF: ENSB 2500/2524 VRB05KT 9999 FEW025 SCT060 TEMPO 2515/2524 14010KT

Wetterbeobachtungen und Prognosen von mehr als 4000 Flughäfen (METAR und TAF Bericht).

Die verfügbaren Stationen werden durch gelbe und rote Markierungen auf der Karte dargestellt.

Führen Sie die Maus auf sie, um den Namen der Station zu sehen.

Darauf klicken, um die Beobachtung von Wetterbeobachtungen und Prognosen zu sehen.

Um die Karte zu ändern : klicken Sie auf den grünen Tasten mit einem schwarzen Kreuz Zum Vergrößern, auf den grünen Button mit einem Gedankenstrich zu verkleinern, oder auf die grünen Pfeile für benachbarte Karten.


METAR-TAF: